createdAt,value
2023-04-02T00:00:56.755Z,101364.00
2023-04-02T00:03:23.437Z,101368.09
2023-04-02T00:05:50.711Z,101369.72
2023-04-02T00:08:25.342Z,101393.09
2023-04-02T00:10:54.199Z,101387.97
2023-04-02T00:13:31.360Z,101365.84
2023-04-02T00:15:59.014Z,101383.31
2023-04-02T00:18:27.090Z,101392.75
2023-04-02T00:21:09.082Z,101395.22
2023-04-02T00:23:44.152Z,101404.00
2023-04-02T00:26:24.856Z,101409.97
2023-04-02T00:28:52.220Z,101414.88
2023-04-02T00:31:20.486Z,101411.34
2023-04-02T00:33:49.468Z,101399.00
2023-04-02T00:36:20.025Z,101426.72
2023-04-02T00:38:48.792Z,101411.09
2023-04-02T00:41:22.420Z,101435.97
2023-04-02T00:43:52.384Z,101441.28
2023-04-02T00:46:24.277Z,101448.94
2023-04-02T00:49:03.014Z,101441.72
2023-04-02T00:51:37.095Z,101441.88
2023-04-02T00:54:06.699Z,101451.25
2023-04-02T00:56:43.555Z,101440.97
2023-04-02T00:59:31.643Z,101457.16
2023-04-02T01:02:18.691Z,101462.31
2023-04-02T01:05:03.560Z,101453.47
2023-04-02T01:07:58.504Z,101473.25
2023-04-02T01:10:40.289Z,101481.69
2023-04-02T01:13:09.800Z,101490.84
2023-04-02T01:15:41.845Z,101491.72
2023-04-02T01:18:37.795Z,101491.91
2023-04-02T01:21:17.839Z,101491.72
2023-04-02T01:23:58.962Z,101493.53
2023-04-02T01:26:45.813Z,101500.88
2023-04-02T01:29:15.613Z,101500.78
2023-04-02T01:31:44.973Z,101498.81
2023-04-02T01:34:15.388Z,101508.38
2023-04-02T01:37:09.473Z,101509.03
2023-04-02T01:39:43.152Z,101498.19
2023-04-02T01:42:25.566Z,101517.03
2023-04-02T01:44:54.472Z,101527.50
2023-04-02T01:47:29.080Z,101536.03
2023-04-02T01:50:04.589Z,101535.97
2023-04-02T01:52:38.570Z,101544.50
2023-04-02T01:55:06.549Z,101545.50
2023-04-02T01:57:33.284Z,101547.97
2023-04-02T02:00:02.038Z,101547.53
2023-04-02T02:02:28.767Z,101564.91
2023-04-02T02:04:55.782Z,101559.59
2023-04-02T02:07:23.462Z,101555.78
2023-04-02T02:09:51.153Z,101573.09
2023-04-02T02:12:17.898Z,101573.00
2023-04-02T02:14:49.954Z,101577.28
2023-04-02T02:17:19.978Z,101574.53
2023-04-02T02:19:49.662Z,101581.59
2023-04-02T02:22:32.691Z,101595.06
2023-04-02T02:25:02.879Z,101590.69
2023-04-02T02:27:30.196Z,101608.56
2023-04-02T02:30:07.594Z,101591.09
2023-04-02T02:32:39.687Z,101596.91
2023-04-02T02:35:23.629Z,101608.00
2023-04-02T02:37:59.872Z,101615.84
2023-04-02T02:40:40.827Z,101627.06
2023-04-02T02:43:12.445Z,101620.69
2023-04-02T02:45:42.287Z,101619.47
2023-04-02T02:48:15.438Z,101648.19
2023-04-02T02:50:43.581Z,101651.63
2023-04-02T02:53:21.212Z,101658.44
2023-04-02T02:55:53.098Z,101661.53
2023-04-02T02:58:24.022Z,101645.44
2023-04-02T03:00:50.774Z,101652.75
2023-04-02T03:03:22.195Z,101645.34
2023-04-02T03:05:55.012Z,101676.69
2023-04-02T03:08:32.584Z,101669.81
2023-04-02T03:11:06.957Z,101667.91
2023-04-02T03:13:36.843Z,101688.75
2023-04-02T03:16:26.223Z,101696.59
2023-04-02T03:19:02.151Z,101697.06
2023-04-02T03:21:41.806Z,101701.84
2023-04-02T03:24:26.168Z,101705.44
2023-04-02T03:26:58.932Z,101711.00
2023-04-02T03:29:28.852Z,101725.03
2023-04-02T03:32:01.057Z,101728.13
2023-04-02T03:34:46.752Z,101745.75
2023-04-02T03:37:21.521Z,101746.06
2023-04-02T03:40:00.172Z,101748.31
2023-04-02T03:42:30.289Z,101748.88
2023-04-02T03:45:10.041Z,101757.34
2023-04-02T03:47:39.776Z,101771.28
2023-04-02T03:50:07.637Z,101772.78
2023-04-02T03:52:37.406Z,101779.44
2023-04-02T03:55:15.962Z,101762.78
2023-04-02T03:58:17.861Z,101782.47
2023-04-02T04:01:03.249Z,101795.31
2023-04-02T04:03:32.561Z,101800.50
2023-04-02T04:06:29.081Z,101804.03
2023-04-02T04:09:07.071Z,101802.94
2023-04-02T04:11:37.565Z,101816.25
2023-04-02T04:14:16.038Z,101829.25
2023-04-02T04:16:56.103Z,101827.34
2023-04-02T04:19:32.621Z,101842.06
2023-04-02T04:22:17.940Z,101819.44
2023-04-02T04:24:46.728Z,101841.13
2023-04-02T04:27:36.254Z,101848.53
2023-04-02T04:30:18.388Z,101857.31
2023-04-02T04:32:58.103Z,101842.97
2023-04-02T04:35:31.248Z,101869.13
2023-04-02T04:38:05.842Z,101840.59
2023-04-02T04:40:37.569Z,101881.94
2023-04-02T04:43:09.999Z,101894.69
2023-04-02T04:45:40.253Z,101870.44
2023-04-02T04:48:29.818Z,101903.06
2023-04-02T04:51:02.322Z,101907.47
2023-04-02T04:53:31.012Z,101906.72
2023-04-02T04:56:12.529Z,101929.63
2023-04-02T04:59:00.375Z,101935.78
2023-04-02T05:02:08.728Z,101936.72
2023-04-02T05:04:41.269Z,101943.34
2023-04-02T05:07:13.985Z,101945.06
2023-04-02T05:09:49.960Z,101964.19
2023-04-02T05:12:36.622Z,101969.81
2023-04-02T05:15:20.410Z,101975.41
2023-04-02T05:18:13.602Z,101981.38
2023-04-02T05:21:07.237Z,101995.22
2023-04-02T05:23:46.923Z,101987.88
2023-04-02T05:26:22.836Z,101999.53
2023-04-02T05:29:01.611Z,102002.84
2023-04-02T05:31:37.895Z,102006.69
2023-04-02T05:34:04.574Z,101987.25
2023-04-02T05:36:32.453Z,102014.06
2023-04-02T05:39:00.017Z,102012.38
2023-04-02T05:41:32.550Z,102023.47
2023-04-02T05:44:26.792Z,102000.31
2023-04-02T05:47:00.266Z,102025.59
2023-04-02T05:49:52.499Z,102033.22
2023-04-02T05:52:47.541Z,102037.44
2023-04-02T05:55:17.161Z,102048.53
2023-04-02T05:58:04.382Z,102058.38
2023-04-02T06:00:36.557Z,102071.78
2023-04-02T06:03:14.211Z,102065.09
2023-04-02T06:05:44.339Z,102067.66
2023-04-02T06:08:45.736Z,102078.59
2023-04-02T06:11:18.936Z,102087.19
2023-04-02T06:13:45.649Z,102078.72
2023-04-02T06:16:16.326Z,102072.38
2023-04-02T06:18:44.400Z,102110.19
2023-04-02T06:21:15.593Z,102112.06
2023-04-02T06:23:51.162Z,102115.31
2023-04-02T06:26:39.520Z,102135.03
2023-04-02T06:29:08.445Z,102126.84
2023-04-02T06:31:40.919Z,102142.69
2023-04-02T06:34:17.992Z,102138.88
2023-04-02T06:36:45.933Z,102144.16
2023-04-02T06:39:19.698Z,102156.88
2023-04-02T06:41:46.795Z,102126.84
2023-04-02T06:44:20.897Z,102158.75
2023-04-02T06:46:54.117Z,102165.22
2023-04-02T06:49:33.134Z,102171.88
2023-04-02T06:52:02.709Z,102164.13
2023-04-02T06:54:29.372Z,102184.47
2023-04-02T06:56:56.774Z,102183.75
2023-04-02T06:59:23.493Z,102155.13
2023-04-02T07:01:57.792Z,102195.91
2023-04-02T07:04:24.943Z,102177.81
2023-04-02T07:06:51.580Z,102199.72
2023-04-02T07:09:18.877Z,102213.88
2023-04-02T07:11:46.131Z,102224.47
2023-04-02T07:14:13.411Z,102229.38
2023-04-02T07:16:42.511Z,102233.25
2023-04-02T07:19:19.243Z,102234.31
2023-04-02T07:21:46.435Z,102242.63
2023-04-02T07:24:13.991Z,102214.84
2023-04-02T07:26:41.078Z,102238.03
2023-04-02T07:29:09.127Z,102240.59
2023-04-02T07:31:38.446Z,102244.63
2023-04-02T07:34:06.164Z,102255.66
2023-04-02T07:36:32.796Z,102236.59
2023-04-02T07:38:59.586Z,102270.75
2023-04-02T07:41:26.404Z,102272.88
2023-04-02T07:43:53.391Z,102257.91
2023-04-02T07:46:20.296Z,102238.38
2023-04-02T07:48:47.698Z,102281.06
2023-04-02T07:51:20.085Z,102286.31
2023-04-02T07:53:50.346Z,102291.63
2023-04-02T07:56:19.875Z,102297.59
2023-04-02T07:58:46.829Z,102295.94
2023-04-02T08:01:18.040Z,102299.09
2023-04-02T08:03:45.014Z,102305.50
2023-04-02T08:06:12.473Z,102313.09
2023-04-02T08:08:39.528Z,102308.88
2023-04-02T08:11:06.657Z,102308.63
2023-04-02T08:13:33.416Z,102292.09
2023-04-02T08:16:01.704Z,102299.22
2023-04-02T08:18:29.281Z,102318.75
2023-04-02T08:20:56.982Z,102306.81
2023-04-02T08:23:23.916Z,102295.09
2023-04-02T08:25:50.981Z,102306.53
2023-04-02T08:28:18.297Z,102343.41
2023-04-02T08:30:45.121Z,102338.84
2023-04-02T08:33:14.284Z,102317.47
2023-04-02T08:35:41.072Z,102314.75
2023-04-02T08:38:08.976Z,102357.78
2023-04-02T08:40:59.328Z,102355.00
2023-04-02T08:43:44.143Z,102361.56
2023-04-02T08:46:30.743Z,102359.66
2023-04-02T08:49:04.298Z,102368.59
2023-04-02T08:51:36.525Z,102385.25
2023-04-02T08:54:18.778Z,102371.97
2023-04-02T08:56:55.519Z,102376.69
2023-04-02T08:59:31.496Z,102383.47
2023-04-02T09:02:37.758Z,102380.72
2023-04-02T09:05:06.124Z,102375.38
2023-04-02T09:07:33.720Z,102382.34
2023-04-02T09:10:00.788Z,102358.06
2023-04-02T09:12:32.080Z,102358.59
2023-04-02T09:15:11.080Z,102395.59
2023-04-02T09:17:50.576Z,102383.28
2023-04-02T09:20:26.267Z,102408.56
2023-04-02T09:22:54.308Z,102407.19
2023-04-02T09:25:31.735Z,102420.00
2023-04-02T09:28:01.891Z,102412.44
2023-04-02T09:30:31.921Z,102432.53
2023-04-02T09:33:02.511Z,102429.41
2023-04-02T09:35:32.679Z,102434.31
2023-04-02T09:38:24.402Z,102430.53
2023-04-02T09:40:53.970Z,102434.41
2023-04-02T09:43:32.902Z,102431.88
2023-04-02T09:46:16.561Z,102433.81
2023-04-02T09:49:03.798Z,102430.59
2023-04-02T09:51:36.762Z,102451.72
2023-04-02T09:54:03.388Z,102448.97
2023-04-02T09:56:40.010Z,102451.81
2023-04-02T09:59:12.674Z,102459.66
2023-04-02T10:01:55.896Z,102455.56
2023-04-02T10:04:45.429Z,102457.63
2023-04-02T10:07:34.559Z,102469.19
2023-04-02T10:10:14.506Z,102470.22
2023-04-02T10:12:43.479Z,102467.22
2023-04-02T10:15:20.417Z,102460.59
2023-04-02T10:17:57.413Z,102471.19
2023-04-02T10:20:27.242Z,102473.00
2023-04-02T10:22:53.906Z,102478.69
2023-04-02T10:25:24.976Z,102483.91
2023-04-02T10:28:02.036Z,102488.53
2023-04-02T10:31:05.854Z,102495.25
2023-04-02T10:33:43.674Z,102491.38
2023-04-02T10:36:48.296Z,102498.84
2023-04-02T10:39:36.051Z,102502.53
2023-04-02T10:42:10.836Z,102489.84
2023-04-02T10:44:51.430Z,102481.50
2023-04-02T10:47:46.095Z,102506.91
2023-04-02T10:50:48.771Z,102510.25
2023-04-02T10:53:22.241Z,102494.97
2023-04-02T10:55:55.287Z,102488.63
2023-04-02T10:58:29.120Z,102476.06
2023-04-02T11:01:05.962Z,102495.03
2023-04-02T11:03:47.204Z,102491.94
2023-04-02T11:06:27.056Z,102512.84
2023-04-02T11:09:01.760Z,102490.50
2023-04-02T11:11:36.905Z,102482.16
2023-04-02T11:14:21.983Z,102510.03
2023-04-02T11:16:49.976Z,102516.47
2023-04-02T11:19:20.048Z,102517.16
2023-04-02T11:22:00.025Z,102519.94
2023-04-02T11:24:33.095Z,102518.59
2023-04-02T11:27:12.175Z,102537.34
2023-04-02T11:29:42.547Z,102524.41
2023-04-02T11:32:34.052Z,102505.56
2023-04-02T11:35:07.291Z,102546.44
2023-04-02T11:37:45.488Z,102547.34
2023-04-02T11:40:12.297Z,102550.03
2023-04-02T11:42:41.294Z,102548.50
2023-04-02T11:45:28.802Z,102545.91
2023-04-02T11:48:08.255Z,102544.53
2023-04-02T11:50:40.994Z,102554.88
2023-04-02T11:53:11.573Z,102555.25
2023-04-02T11:55:42.165Z,102559.44
2023-04-02T11:58:24.971Z,102556.47
2023-04-02T12:00:57.759Z,102555.06
2023-04-02T12:03:52.716Z,102565.66
2023-04-02T12:06:44.297Z,102566.53
2023-04-02T12:09:38.769Z,102569.44
2023-04-02T12:12:32.081Z,102578.03
2023-04-02T12:15:00.120Z,102584.53
2023-04-02T12:17:34.934Z,102581.84
2023-04-02T12:20:09.163Z,102582.72
2023-04-02T12:22:46.081Z,102562.25
2023-04-02T12:25:40.504Z,102586.31
2023-04-02T12:28:09.846Z,102589.88
2023-04-02T12:30:37.732Z,102574.44
2023-04-02T12:33:19.520Z,102591.22
2023-04-02T12:35:48.581Z,102571.81
2023-04-02T12:38:25.784Z,102589.31
2023-04-02T12:40:57.186Z,102579.25
2023-04-02T12:43:32.022Z,102591.72
2023-04-02T12:46:01.374Z,102602.50
2023-04-02T12:48:29.661Z,102593.56
2023-04-02T12:50:57.891Z,102595.22
2023-04-02T12:53:28.683Z,102600.34
2023-04-02T12:55:56.306Z,102591.53
2023-04-02T12:58:37.284Z,102576.75
2023-04-02T13:01:18.703Z,102595.34
2023-04-02T13:04:04.550Z,102596.28
2023-04-02T13:06:31.999Z,102595.91
2023-04-02T13:09:00.464Z,102600.03
2023-04-02T13:11:37.848Z,102602.31
2023-04-02T13:14:06.722Z,102587.31
2023-04-02T13:16:36.331Z,102607.53
2023-04-02T13:19:31.027Z,102604.59
2023-04-02T13:22:00.641Z,102599.94
2023-04-02T13:24:33.831Z,102613.69
2023-04-02T13:27:02.613Z,102607.88
2023-04-02T13:29:34.638Z,102600.69
2023-04-02T13:32:03.729Z,102599.38
2023-04-02T13:34:30.960Z,102597.94
2023-04-02T13:36:58.246Z,102575.84
2023-04-02T13:39:25.413Z,102601.56
2023-04-02T13:42:00.446Z,102601.53
2023-04-02T13:44:27.830Z,102611.84
2023-04-02T13:46:55.763Z,102601.44
2023-04-02T13:49:23.483Z,102596.72
2023-04-02T13:51:52.616Z,102603.09
2023-04-02T13:54:34.955Z,102603.78
2023-04-02T13:57:01.920Z,102614.41
2023-04-02T13:59:28.591Z,102619.41
2023-04-02T14:01:59.453Z,102614.50
2023-04-02T14:04:33.082Z,102622.75
2023-04-02T14:07:21.835Z,102633.75
2023-04-02T14:09:50.393Z,102632.31
2023-04-02T14:12:31.429Z,102623.03
2023-04-02T14:15:11.061Z,102634.09
2023-04-02T14:18:07.938Z,102635.91
2023-04-02T14:20:56.879Z,102637.38
2023-04-02T14:23:28.798Z,102630.47
2023-04-02T14:26:07.364Z,102633.97
2023-04-02T14:28:59.030Z,102629.91
2023-04-02T14:31:57.507Z,102634.63
2023-04-02T14:34:51.920Z,102638.31
2023-04-02T14:37:27.367Z,102639.72
2023-04-02T14:40:13.318Z,102641.00
2023-04-02T14:42:52.663Z,102652.56
2023-04-02T14:45:51.870Z,102659.50
2023-04-02T14:48:50.410Z,102654.47
2023-04-02T14:51:45.872Z,102664.47
2023-04-02T14:54:25.462Z,102663.97
2023-04-02T14:57:13.303Z,102672.25
2023-04-02T14:59:45.101Z,102662.00
2023-04-02T15:02:32.976Z,102660.09
2023-04-02T15:05:05.254Z,102668.78
2023-04-02T15:07:52.933Z,102671.81
2023-04-02T15:10:52.404Z,102675.72
2023-04-02T15:13:31.829Z,102666.97
2023-04-02T15:16:11.358Z,102669.16
2023-04-02T15:18:59.735Z,102679.47
2023-04-02T15:22:08.114Z,102684.41
2023-04-02T15:25:03.681Z,102687.25
2023-04-02T15:27:57.853Z,102679.34
2023-04-02T15:30:47.752Z,102676.84
2023-04-02T15:33:38.461Z,102680.75
2023-04-02T15:36:32.997Z,102687.97
2023-04-02T15:39:19.261Z,102672.84
2023-04-02T15:42:01.397Z,102684.47
2023-04-02T15:44:36.254Z,102685.19
2023-04-02T15:47:27.234Z,102698.28
2023-04-02T15:50:37.030Z,102697.66
2023-04-02T15:56:52.891Z,102681.38
2023-04-02T15:59:38.191Z,102696.00
2023-04-02T16:02:39.613Z,102687.88
2023-04-02T16:05:44.529Z,102683.63
2023-04-02T16:08:22.915Z,102698.06
2023-04-02T16:10:49.604Z,102707.94
2023-04-02T16:13:28.338Z,102712.69
2023-04-02T16:16:13.678Z,102723.38
2023-04-02T16:19:02.846Z,102708.19
2023-04-02T16:21:34.278Z,102719.66
2023-04-02T16:24:00.949Z,102720.81
2023-04-02T16:27:01.846Z,102721.47
2023-04-02T16:29:51.071Z,102728.06
2023-04-02T16:33:08.726Z,102725.50
2023-04-02T16:35:51.951Z,102732.75
2023-04-02T16:38:30.529Z,102734.44
2023-04-02T16:41:15.935Z,102718.66
2023-04-02T16:44:01.805Z,102735.41
2023-04-02T16:46:50.726Z,102743.38
2023-04-02T16:49:45.997Z,102745.66
2023-04-02T16:52:34.006Z,102757.44
2023-04-02T16:55:23.687Z,102753.09
2023-04-02T16:58:24.468Z,102766.78
2023-04-02T17:01:02.759Z,102771.03
2023-04-02T17:04:25.893Z,102771.47
2023-04-02T17:07:25.632Z,102784.78
2023-04-02T17:09:59.161Z,102792.38
2023-04-02T17:12:52.530Z,102804.59
2023-04-02T17:15:37.387Z,102797.28
2023-04-02T17:18:13.736Z,102803.66
2023-04-02T17:20:40.801Z,102800.88
2023-04-02T17:23:13.579Z,102818.59
2023-04-02T17:25:49.948Z,102814.91
2023-04-02T17:28:26.219Z,102825.56
2023-04-02T17:31:01.035Z,102815.28
2023-04-02T17:33:29.384Z,102818.81
2023-04-02T17:36:27.163Z,102823.34
2023-04-02T17:39:00.528Z,102833.41
2023-04-02T17:42:04.715Z,102841.13
2023-04-02T17:44:49.402Z,102836.69
2023-04-02T17:47:20.855Z,102850.25
2023-04-02T17:50:13.741Z,102855.63
2023-04-02T17:52:53.306Z,102845.59
2023-04-02T17:55:26.331Z,102858.63
2023-04-02T17:58:02.302Z,102858.47
2023-04-02T18:01:00.621Z,102857.59
2023-04-02T18:03:58.106Z,102864.09
2023-04-02T18:10:23.633Z,102879.56
2023-04-02T18:15:54.186Z,102881.31
2023-04-02T18:18:26.855Z,102876.91
2023-04-02T18:21:28.671Z,102885.84
2023-04-02T18:24:20.073Z,102888.53
2023-04-02T18:26:55.509Z,102899.28
2023-04-02T18:29:22.133Z,102901.94
2023-04-02T18:32:03.717Z,102907.19
2023-04-02T18:34:33.275Z,102916.28
2023-04-02T18:37:09.302Z,102911.81
2023-04-02T18:39:59.170Z,102915.63
2023-04-02T18:42:31.822Z,102911.47
2023-04-02T18:45:13.275Z,102917.16
2023-04-02T18:48:04.600Z,102928.28
2023-04-02T18:50:37.147Z,102927.53
2023-04-02T18:53:15.079Z,102938.44
2023-04-02T18:55:48.510Z,102942.38
2023-04-02T18:58:25.466Z,102933.31
2023-04-02T19:00:52.358Z,102948.56
2023-04-02T19:03:27.549Z,102956.19
2023-04-02T19:06:04.432Z,102968.19
2023-04-02T19:08:41.912Z,102968.19
2023-04-02T19:11:15.986Z,102964.38
2023-04-02T19:13:44.544Z,102973.75
2023-04-02T19:16:45.860Z,102985.97
2023-04-02T19:19:18.235Z,102996.88
2023-04-02T19:22:10.774Z,102998.28
2023-04-02T19:24:51.498Z,102993.16
2023-04-02T19:28:09.843Z,102999.81
2023-04-02T19:31:08.708Z,102997.56
2023-04-02T19:33:56.580Z,102998.59
2023-04-02T19:36:44.588Z,103010.78
2023-04-02T19:39:42.497Z,103010.00
2023-04-02T19:42:44.825Z,103016.09
2023-04-02T19:45:41.443Z,103013.44
2023-04-02T19:48:12.889Z,103013.28
2023-04-02T19:50:39.829Z,103022.53
2023-04-02T19:53:06.911Z,103027.56
2023-04-02T19:55:33.656Z,103024.16
2023-04-02T19:58:17.267Z,103022.28
2023-04-02T20:00:47.614Z,102995.34
2023-04-02T20:03:14.420Z,103037.53
2023-04-02T20:05:41.189Z,103028.09
2023-04-02T20:08:13.938Z,103027.91
2023-04-02T20:10:42.186Z,103035.81
2023-04-02T20:13:09.407Z,103039.66
2023-04-02T20:15:36.564Z,103038.56
2023-04-02T20:18:04.698Z,103049.78
2023-04-02T20:20:31.512Z,103046.25
2023-04-02T20:22:59.249Z,103055.22
2023-04-02T20:28:22.333Z,103057.59
2023-04-02T20:30:54.934Z,103047.16
2023-04-02T20:33:24.581Z,103064.88
2023-04-02T20:35:52.427Z,103067.13
2023-04-02T20:38:21.500Z,103069.56
2023-04-02T20:40:52.986Z,103077.84
2023-04-02T20:43:20.828Z,103079.22
2023-04-02T20:46:04.740Z,103071.44
2023-04-02T20:51:16.740Z,103083.72
2023-04-02T20:53:43.626Z,103089.72
2023-04-02T20:56:16.721Z,103096.69
2023-04-02T20:58:46.736Z,103101.44
2023-04-02T21:04:03.775Z,103097.09
2023-04-02T21:06:45.916Z,103095.28
2023-04-02T21:09:19.086Z,103103.41
2023-04-02T21:11:48.792Z,103111.34
2023-04-02T21:14:18.890Z,103114.38
2023-04-02T21:16:46.555Z,103121.94
2023-04-02T21:19:13.814Z,103123.88
2023-04-02T21:21:44.236Z,103121.88
2023-04-02T21:24:10.981Z,103123.44
2023-04-02T21:26:40.282Z,103132.97
2023-04-02T21:29:07.122Z,103126.63
2023-04-02T21:31:38.928Z,103134.09
2023-04-02T21:34:07.524Z,103139.66
2023-04-02T21:36:37.527Z,103143.03
2023-04-02T21:39:08.493Z,103147.13
2023-04-02T21:41:38.128Z,103136.78
2023-04-02T21:44:07.272Z,103149.34
2023-04-02T21:46:36.266Z,103142.63
2023-04-02T21:49:02.875Z,103138.84
2023-04-02T21:51:32.673Z,103137.88
2023-04-02T21:54:00.266Z,103140.41
2023-04-02T21:56:29.708Z,103146.97
2023-04-02T21:58:58.227Z,103149.31
2023-04-02T22:01:28.106Z,103147.75
2023-04-02T22:03:56.532Z,103141.78
2023-04-02T22:06:25.264Z,103142.88
2023-04-02T22:08:56.432Z,103145.53
2023-04-02T22:11:28.312Z,103146.19
2023-04-02T22:13:58.106Z,103146.44
2023-04-02T22:16:28.462Z,103146.88
2023-04-02T22:18:57.413Z,103141.31
2023-04-02T22:21:25.726Z,103144.66
2023-04-02T22:23:54.399Z,103139.88
2023-04-02T22:26:23.084Z,103146.00
2023-04-02T22:28:50.927Z,103135.69
2023-04-02T22:31:21.358Z,103140.88
2023-04-02T22:33:49.749Z,103144.56
2023-04-02T22:36:25.048Z,103147.34
2023-04-02T22:38:55.394Z,103145.69
2023-04-02T22:41:26.511Z,103151.78
2023-04-02T22:43:57.235Z,103154.66
2023-04-02T22:46:25.578Z,103156.13
2023-04-02T22:48:54.105Z,103160.69
2023-04-02T22:51:22.292Z,103164.66
2023-04-02T22:53:49.902Z,103151.78
2023-04-02T22:56:20.774Z,103158.78
2023-04-02T22:58:48.510Z,103158.78
2023-04-02T23:01:25.182Z,103161.97
2023-04-02T23:03:55.127Z,103158.88
2023-04-02T23:06:22.875Z,103159.28
2023-04-02T23:08:49.845Z,103161.28
2023-04-02T23:11:20.111Z,103165.25
2023-04-02T23:13:49.011Z,103154.84
2023-04-02T23:16:18.227Z,103171.47
2023-04-02T23:18:50.764Z,103169.47
2023-04-02T23:21:18.544Z,103168.59
2023-04-02T23:23:48.679Z,103167.56
2023-04-02T23:26:30.663Z,103163.28
2023-04-02T23:28:59.463Z,103173.56
2023-04-02T23:31:26.941Z,103181.47
2023-04-02T23:33:54.360Z,103183.00
2023-04-02T23:36:24.677Z,103189.31
2023-04-02T23:38:55.586Z,103184.00
2023-04-02T23:41:26.579Z,103194.75
2023-04-02T23:43:54.781Z,103195.63
2023-04-02T23:46:22.979Z,103185.50
2023-04-02T23:48:50.717Z,103190.50
2023-04-02T23:51:19.153Z,103187.06
2023-04-02T23:53:46.746Z,103190.25
2023-04-02T23:56:14.327Z,103172.25
2023-04-02T23:58:44.111Z,103188.44
